sensor_id;sensor_type;location;lat;lon;timestamp;temperature;humidity
21355;DHT22;10835;50.148;19.760;2023-02-28T00:01:30;17.30;33.20
21355;DHT22;10835;50.148;19.760;2023-02-28T00:03:58;17.40;33.10
21355;DHT22;10835;50.148;19.760;2023-02-28T00:06:27;17.40;33.10
21355;DHT22;10835;50.148;19.760;2023-02-28T00:08:55;17.50;33.40
21355;DHT22;10835;50.148;19.760;2023-02-28T00:11:23;17.30;33.00
21355;DHT22;10835;50.148;19.760;2023-02-28T00:13:54;17.30;33.90
21355;DHT22;10835;50.148;19.760;2023-02-28T00:16:22;17.30;33.60
21355;DHT22;10835;50.148;19.760;2023-02-28T00:18:52;17.40;33.50
21355;DHT22;10835;50.148;19.760;2023-02-28T00:21:20;17.50;33.50
21355;DHT22;10835;50.148;19.760;2023-02-28T00:23:49;17.50;33.50
21355;DHT22;10835;50.148;19.760;2023-02-28T00:26:17;17.40;33.20
21355;DHT22;10835;50.148;19.760;2023-02-28T00:28:48;17.20;33.30
21355;DHT22;10835;50.148;19.760;2023-02-28T00:31:17;17.20;33.30
21355;DHT22;10835;50.148;19.760;2023-02-28T00:33:46;17.20;33.40
21355;DHT22;10835;50.148;19.760;2023-02-28T00:36:16;17.20;33.40
21355;DHT22;10835;50.148;19.760;2023-02-28T00:38:47;17.20;33.40
21355;DHT22;10835;50.148;19.760;2023-02-28T00:41:15;17.40;33.50
21355;DHT22;10835;50.148;19.760;2023-02-28T00:43:44;17.30;33.10
21355;DHT22;10835;50.148;19.760;2023-02-28T00:46:12;17.30;33.10
21355;DHT22;10835;50.148;19.760;2023-02-28T00:48:40;17.30;33.20
21355;DHT22;10835;50.148;19.760;2023-02-28T00:51:08;17.50;33.30
21355;DHT22;10835;50.148;19.760;2023-02-28T00:53:38;17.60;33.30
21355;DHT22;10835;50.148;19.760;2023-02-28T00:56:06;17.60;33.10
21355;DHT22;10835;50.148;19.760;2023-02-28T00:58:35;17.70;33.30
21355;DHT22;10835;50.148;19.760;2023-02-28T01:01:03;17.80;33.10
21355;DHT22;10835;50.148;19.760;2023-02-28T01:03:32;17.80;32.90
21355;DHT22;10835;50.148;19.760;2023-02-28T01:06:00;17.80;32.80
21355;DHT22;10835;50.148;19.760;2023-02-28T01:08:28;17.60;33.00
21355;DHT22;10835;50.148;19.760;2023-02-28T01:10:58;17.50;33.20
21355;DHT22;10835;50.148;19.760;2023-02-28T01:13:34;17.60;33.50
21355;DHT22;10835;50.148;19.760;2023-02-28T01:16:06;17.60;33.30
21355;DHT22;10835;50.148;19.760;2023-02-28T01:18:35;17.80;33.60
21355;DHT22;10835;50.148;19.760;2023-02-28T01:21:04;17.90;33.40
21355;DHT22;10835;50.148;19.760;2023-02-28T01:23:32;17.90;33.20
21355;DHT22;10835;50.148;19.760;2023-02-28T01:26:05;17.90;33.00
21355;DHT22;10835;50.148;19.760;2023-02-28T01:28:33;17.90;33.10
21355;DHT22;10835;50.148;19.760;2023-02-28T01:31:03;17.70;33.30
21355;DHT22;10835;50.148;19.760;2023-02-28T01:33:34;17.80;33.50
21355;DHT22;10835;50.148;19.760;2023-02-28T01:36:04;17.80;33.70
21355;DHT22;10835;50.148;19.760;2023-02-28T01:38:35;17.90;34.00
21355;DHT22;10835;50.148;19.760;2023-02-28T01:41:10;17.90;33.80
21355;DHT22;10835;50.148;19.760;2023-02-28T01:43:59;18.00;34.20
21355;DHT22;10835;50.148;19.760;2023-02-28T01:46:31;18.00;33.90
21355;DHT22;10835;50.148;19.760;2023-02-28T01:49:04;18.10;34.30
21355;DHT22;10835;50.148;19.760;2023-02-28T01:51:37;18.10;34.50
21355;DHT22;10835;50.148;19.760;2023-02-28T01:54:10;18.00;35.00
21355;DHT22;10835;50.148;19.760;2023-02-28T01:56:45;18.10;34.20
21355;DHT22;10835;50.148;19.760;2023-02-28T01:59:20;18.10;33.60
21355;DHT22;10835;50.148;19.760;2023-02-28T02:01:52;18.00;33.60
21355;DHT22;10835;50.148;19.760;2023-02-28T02:04:23;17.90;33.50
21355;DHT22;10835;50.148;19.760;2023-02-28T02:06:53;17.80;33.20
21355;DHT22;10835;50.148;19.760;2023-02-28T02:09:21;17.50;33.40
21355;DHT22;10835;50.148;19.760;2023-02-28T02:11:55;17.30;33.80
21355;DHT22;10835;50.148;19.760;2023-02-28T02:14:40;17.20;33.90
21355;DHT22;10835;50.148;19.760;2023-02-28T02:17:19;17.10;33.80
21355;DHT22;10835;50.148;19.760;2023-02-28T02:23:31;17.00;34.10
21355;DHT22;10835;50.148;19.760;2023-02-28T02:26:19;17.00;34.50
21355;DHT22;10835;50.148;19.760;2023-02-28T02:29:17;17.10;34.60
21355;DHT22;10835;50.148;19.760;2023-02-28T02:32:18;17.20;34.60
21355;DHT22;10835;50.148;19.760;2023-02-28T02:34:57;17.10;34.30
21355;DHT22;10835;50.148;19.760;2023-02-28T02:37:36;17.10;34.20
21355;DHT22;10835;50.148;19.760;2023-02-28T02:40:12;17.10;34.30
21355;DHT22;10835;50.148;19.760;2023-02-28T02:42:47;17.10;34.20
21355;DHT22;10835;50.148;19.760;2023-02-28T02:45:23;17.00;34.10
21355;DHT22;10835;50.148;19.760;2023-02-28T02:47:54;17.10;34.30
21355;DHT22;10835;50.148;19.760;2023-02-28T02:50:29;17.10;34.50
21355;DHT22;10835;50.148;19.760;2023-02-28T02:53:01;17.20;35.00
21355;DHT22;10835;50.148;19.760;2023-02-28T02:55:34;17.30;34.90
21355;DHT22;10835;50.148;19.760;2023-02-28T02:58:09;17.30;35.00
21355;DHT22;10835;50.148;19.760;2023-02-28T03:00:42;17.10;34.70
21355;DHT22;10835;50.148;19.760;2023-02-28T03:03:12;17.10;35.00
21355;DHT22;10835;50.148;19.760;2023-02-28T03:05:46;17.20;34.40
21355;DHT22;10835;50.148;19.760;2023-02-28T03:08:15;17.20;34.40
21355;DHT22;10835;50.148;19.760;2023-02-28T03:10:46;17.20;34.70
21355;DHT22;10835;50.148;19.760;2023-02-28T03:13:37;17.30;34.10
21355;DHT22;10835;50.148;19.760;2023-02-28T03:22:02;17.10;34.70
21355;DHT22;10835;50.148;19.760;2023-02-28T03:24:40;17.10;34.90
21355;DHT22;10835;50.148;19.760;2023-02-28T03:27:15;16.90;34.70
21355;DHT22;10835;50.148;19.760;2023-02-28T03:29:49;16.80;35.20
21355;DHT22;10835;50.148;19.760;2023-02-28T03:32:24;16.40;35.00
21355;DHT22;10835;50.148;19.760;2023-02-28T03:34:58;16.40;35.50
21355;DHT22;10835;50.148;19.760;2023-02-28T03:37:29;16.30;35.10
21355;DHT22;10835;50.148;19.760;2023-02-28T03:40:01;16.20;35.50
21355;DHT22;10835;50.148;19.760;2023-02-28T03:42:35;16.20;35.90
21355;DHT22;10835;50.148;19.760;2023-02-28T03:45:08;16.10;35.70
21355;DHT22;10835;50.148;19.760;2023-02-28T03:47:41;16.00;35.80
21355;DHT22;10835;50.148;19.760;2023-02-28T03:50:16;16.10;36.30
21355;DHT22;10835;50.148;19.760;2023-02-28T03:52:49;16.20;36.10
21355;DHT22;10835;50.148;19.760;2023-02-28T03:55:19;16.30;36.00
21355;DHT22;10835;50.148;19.760;2023-02-28T03:57:55;16.30;36.10
21355;DHT22;10835;50.148;19.760;2023-02-28T04:00:28;16.30;35.50
21355;DHT22;10835;50.148;19.760;2023-02-28T04:02:58;16.40;35.50
21355;DHT22;10835;50.148;19.760;2023-02-28T04:05:27;16.30;35.90
21355;DHT22;10835;50.148;19.760;2023-02-28T04:08:03;16.30;35.70
21355;DHT22;10835;50.148;19.760;2023-02-28T04:10:32;16.30;35.30
21355;DHT22;10835;50.148;19.760;2023-02-28T04:13:00;16.40;35.20
21355;DHT22;10835;50.148;19.760;2023-02-28T04:15:28;16.40;35.20
21355;DHT22;10835;50.148;19.760;2023-02-28T04:17:57;16.30;35.20
21355;DHT22;10835;50.148;19.760;2023-02-28T04:20:25;16.20;35.60
21355;DHT22;10835;50.148;19.760;2023-02-28T04:22:53;16.20;35.40
21355;DHT22;10835;50.148;19.760;2023-02-28T04:25:23;16.30;35.80
21355;DHT22;10835;50.148;19.760;2023-02-28T04:27:51;16.30;35.60
21355;DHT22;10835;50.148;19.760;2023-02-28T04:30:19;16.30;35.50
21355;DHT22;10835;50.148;19.760;2023-02-28T04:32:47;16.20;35.80
21355;DHT22;10835;50.148;19.760;2023-02-28T04:35:15;16.30;35.60
21355;DHT22;10835;50.148;19.760;2023-02-28T04:37:44;16.30;35.90
21355;DHT22;10835;50.148;19.760;2023-02-28T04:40:12;16.30;35.70
21355;DHT22;10835;50.148;19.760;2023-02-28T04:42:41;16.40;35.70
21355;DHT22;10835;50.148;19.760;2023-02-28T04:45:10;16.40;35.40
21355;DHT22;10835;50.148;19.760;2023-02-28T04:47:38;16.30;35.50
21355;DHT22;10835;50.148;19.760;2023-02-28T04:50:08;16.30;35.50
21355;DHT22;10835;50.148;19.760;2023-02-28T04:52:36;16.20;35.50
21355;DHT22;10835;50.148;19.760;2023-02-28T04:55:05;16.20;35.80
21355;DHT22;10835;50.148;19.760;2023-02-28T04:57:33;16.20;35.50
21355;DHT22;10835;50.148;19.760;2023-02-28T05:00:03;16.20;35.60
21355;DHT22;10835;50.148;19.760;2023-02-28T05:02:38;16.30;35.80
21355;DHT22;10835;50.148;19.760;2023-02-28T05:05:06;16.40;35.50
21355;DHT22;10835;50.148;19.760;2023-02-28T05:07:35;16.20;35.40
21355;DHT22;10835;50.148;19.760;2023-02-28T05:10:03;16.20;35.50
21355;DHT22;10835;50.148;19.760;2023-02-28T05:12:32;16.20;35.40
21355;DHT22;10835;50.148;19.760;2023-02-28T05:15:00;16.20;36.10
21355;DHT22;10835;50.148;19.760;2023-02-28T05:17:30;16.10;35.60
21355;DHT22;10835;50.148;19.760;2023-02-28T05:19:59;15.80;35.70
21355;DHT22;10835;50.148;19.760;2023-02-28T05:22:41;15.70;36.00
21355;DHT22;10835;50.148;19.760;2023-02-28T05:25:13;15.60;36.10
21355;DHT22;10835;50.148;19.760;2023-02-28T05:27:41;15.60;36.20
21355;DHT22;10835;50.148;19.760;2023-02-28T05:30:10;15.50;36.20
21355;DHT22;10835;50.148;19.760;2023-02-28T05:32:40;15.40;36.50
21355;DHT22;10835;50.148;19.760;2023-02-28T05:35:11;15.30;36.50
21355;DHT22;10835;50.148;19.760;2023-02-28T05:37:39;15.20;36.70
21355;DHT22;10835;50.148;19.760;2023-02-28T05:40:09;15.10;36.80
21355;DHT22;10835;50.148;19.760;2023-02-28T05:42:38;15.00;37.20
21355;DHT22;10835;50.148;19.760;2023-02-28T05:45:07;14.90;37.50
21355;DHT22;10835;50.148;19.760;2023-02-28T05:47:36;15.00;37.40
21355;DHT22;10835;50.148;19.760;2023-02-28T05:50:06;14.70;37.60
21355;DHT22;10835;50.148;19.760;2023-02-28T05:52:36;14.50;37.90
21355;DHT22;10835;50.148;19.760;2023-02-28T05:55:05;14.50;37.90
21355;DHT22;10835;50.148;19.760;2023-02-28T05:57:33;14.50;38.30
21355;DHT22;10835;50.148;19.760;2023-02-28T06:00:02;14.40;38.50
21355;DHT22;10835;50.148;19.760;2023-02-28T06:02:39;14.60;38.40
21355;DHT22;10835;50.148;19.760;2023-02-28T06:05:13;14.80;38.30
21355;DHT22;10835;50.148;19.760;2023-02-28T06:07:42;14.90;37.90
21355;DHT22;10835;50.148;19.760;2023-02-28T06:10:11;15.00;37.70
21355;DHT22;10835;50.148;19.760;2023-02-28T06:12:39;15.10;37.80
21355;DHT22;10835;50.148;19.760;2023-02-28T06:15:11;15.10;37.50
21355;DHT22;10835;50.148;19.760;2023-02-28T06:17:40;14.80;37.80
21355;DHT22;10835;50.148;19.760;2023-02-28T06:20:12;14.60;38.20
21355;DHT22;10835;50.148;19.760;2023-02-28T06:22:41;14.60;38.40
21355;DHT22;10835;50.148;19.760;2023-02-28T06:25:10;14.80;38.60
21355;DHT22;10835;50.148;19.760;2023-02-28T06:27:38;14.70;38.40
21355;DHT22;10835;50.148;19.760;2023-02-28T06:30:08;14.60;38.20
21355;DHT22;10835;50.148;19.760;2023-02-28T06:32:36;14.30;38.30
21355;DHT22;10835;50.148;19.760;2023-02-28T06:35:05;14.00;38.90
21355;DHT22;10835;50.148;19.760;2023-02-28T06:37:34;14.10;39.20
21355;DHT22;10835;50.148;19.760;2023-02-28T06:40:03;14.20;39.60
21355;DHT22;10835;50.148;19.760;2023-02-28T06:42:34;13.80;39.50
21355;DHT22;10835;50.148;19.760;2023-02-28T06:45:03;13.80;39.60
21355;DHT22;10835;50.148;19.760;2023-02-28T06:47:36;13.40;40.10
21355;DHT22;10835;50.148;19.760;2023-02-28T06:50:06;13.80;40.30
21355;DHT22;10835;50.148;19.760;2023-02-28T06:52:36;13.80;39.60
21355;DHT22;10835;50.148;19.760;2023-02-28T06:55:06;13.70;39.60
21355;DHT22;10835;50.148;19.760;2023-02-28T06:57:35;13.70;40.10
21355;DHT22;10835;50.148;19.760;2023-02-28T07:00:06;13.90;40.00
21355;DHT22;10835;50.148;19.760;2023-02-28T07:02:35;14.20;39.70
21355;DHT22;10835;50.148;19.760;2023-02-28T07:05:05;14.10;39.50
21355;DHT22;10835;50.148;19.760;2023-02-28T07:07:33;14.10;39.30
21355;DHT22;10835;50.148;19.760;2023-02-28T07:10:07;13.90;39.60
21355;DHT22;10835;50.148;19.760;2023-02-28T07:12:36;14.00;39.80
21355;DHT22;10835;50.148;19.760;2023-02-28T07:15:06;14.00;40.20
21355;DHT22;10835;50.148;19.760;2023-02-28T07:17:34;14.00;39.90
21355;DHT22;10835;50.148;19.760;2023-02-28T07:20:03;14.00;40.10
21355;DHT22;10835;50.148;19.760;2023-02-28T07:22:34;14.30;40.30
21355;DHT22;10835;50.148;19.760;2023-02-28T07:25:02;13.90;39.90
21355;DHT22;10835;50.148;19.760;2023-02-28T07:27:32;13.80;40.00
21355;DHT22;10835;50.148;19.760;2023-02-28T07:30:01;13.80;40.70
21355;DHT22;10835;50.148;19.760;2023-02-28T07:32:32;14.10;40.70
21355;DHT22;10835;50.148;19.760;2023-02-28T07:35:05;13.90;40.30
21355;DHT22;10835;50.148;19.760;2023-02-28T07:37:34;14.30;40.70
21355;DHT22;10835;50.148;19.760;2023-02-28T07:40:04;14.20;40.30
21355;DHT22;10835;50.148;19.760;2023-02-28T07:42:36;14.30;40.10
21355;DHT22;10835;50.148;19.760;2023-02-28T07:45:06;14.50;40.10
21355;DHT22;10835;50.148;19.760;2023-02-28T07:47:35;14.80;40.10
21355;DHT22;10835;50.148;19.760;2023-02-28T07:50:04;15.10;39.40
21355;DHT22;10835;50.148;19.760;2023-02-28T07:52:33;15.40;38.80
21355;DHT22;10835;50.148;19.760;2023-02-28T07:55:01;15.30;38.70
21355;DHT22;10835;50.148;19.760;2023-02-28T07:57:29;14.80;38.50
21355;DHT22;10835;50.148;19.760;2023-02-28T08:00:01;14.40;39.10
21355;DHT22;10835;50.148;19.760;2023-02-28T08:02:37;14.00;39.80
21355;DHT22;10835;50.148;19.760;2023-02-28T08:05:06;14.40;40.50
21355;DHT22;10835;50.148;19.760;2023-02-28T08:07:34;14.70;39.80
21355;DHT22;10835;50.148;19.760;2023-02-28T08:10:04;15.00;39.40
21355;DHT22;10835;50.148;19.760;2023-02-28T08:12:33;15.10;39.40
21355;DHT22;10835;50.148;19.760;2023-02-28T08:15:03;15.40;38.80
21355;DHT22;10835;50.148;19.760;2023-02-28T08:17:33;15.40;38.90
21355;DHT22;10835;50.148;19.760;2023-02-28T08:20:01;14.90;38.70
21355;DHT22;10835;50.148;19.760;2023-02-28T08:22:30;14.50;38.80
21355;DHT22;10835;50.148;19.760;2023-02-28T08:24:59;14.60;39.30
21355;DHT22;10835;50.148;19.760;2023-02-28T08:27:27;14.90;39.70
21355;DHT22;10835;50.148;19.760;2023-02-28T08:29:55;14.90;38.90
21355;DHT22;10835;50.148;19.760;2023-02-28T08:32:27;15.40;39.00
21355;DHT22;10835;50.148;19.760;2023-02-28T08:34:56;15.50;38.10
21355;DHT22;10835;50.148;19.760;2023-02-28T08:37:25;15.40;37.80
21355;DHT22;10835;50.148;19.760;2023-02-28T08:39:53;15.80;38.00
21355;DHT22;10835;50.148;19.760;2023-02-28T08:42:22;16.00;37.90
21355;DHT22;10835;50.148;19.760;2023-02-28T08:44:51;15.70;37.50
21355;DHT22;10835;50.148;19.760;2023-02-28T08:47:19;15.90;37.00
21355;DHT22;10835;50.148;19.760;2023-02-28T08:49:49;16.00;37.10
21355;DHT22;10835;50.148;19.760;2023-02-28T08:52:18;16.10;36.70
21355;DHT22;10835;50.148;19.760;2023-02-28T08:54:46;16.40;36.40
21355;DHT22;10835;50.148;19.760;2023-02-28T08:57:14;16.20;35.80
21355;DHT22;10835;50.148;19.760;2023-02-28T08:59:42;16.20;35.40
21355;DHT22;10835;50.148;19.760;2023-02-28T09:02:12;16.00;35.00
21355;DHT22;10835;50.148;19.760;2023-02-28T09:04:41;15.70;35.20
21355;DHT22;10835;50.148;19.760;2023-02-28T09:07:13;15.80;35.20
21355;DHT22;10835;50.148;19.760;2023-02-28T09:09:41;16.00;35.50
21355;DHT22;10835;50.148;19.760;2023-02-28T09:12:21;16.00;34.40
21355;DHT22;10835;50.148;19.760;2023-02-28T09:14:49;16.10;34.00
21355;DHT22;10835;50.148;19.760;2023-02-28T09:17:19;16.20;33.60
21355;DHT22;10835;50.148;19.760;2023-02-28T09:19:48;15.90;34.10
21355;DHT22;10835;50.148;19.760;2023-02-28T09:22:18;15.90;34.70
21355;DHT22;10835;50.148;19.760;2023-02-28T09:24:46;15.60;34.70
21355;DHT22;10835;50.148;19.760;2023-02-28T09:27:14;15.60;35.10
21355;DHT22;10835;50.148;19.760;2023-02-28T09:29:43;15.60;35.70
21355;DHT22;10835;50.148;19.760;2023-02-28T09:32:11;15.90;34.90
21355;DHT22;10835;50.148;19.760;2023-02-28T09:34:39;16.10;34.90
21355;DHT22;10835;50.148;19.760;2023-02-28T09:37:08;16.30;35.00
21355;DHT22;10835;50.148;19.760;2023-02-28T09:39:37;16.50;34.60
21355;DHT22;10835;50.148;19.760;2023-02-28T09:42:11;16.70;33.70
21355;DHT22;10835;50.148;19.760;2023-02-28T09:44:47;17.10;32.80
21355;DHT22;10835;50.148;19.760;2023-02-28T09:47:21;17.40;32.40
21355;DHT22;10835;50.148;19.760;2023-02-28T09:49:55;17.50;32.90
21355;DHT22;10835;50.148;19.760;2023-02-28T09:52:27;17.50;32.70
21355;DHT22;10835;50.148;19.760;2023-02-28T09:55:01;17.40;32.50
21355;DHT22;10835;50.148;19.760;2023-02-28T09:57:40;16.70;32.60
21355;DHT22;10835;50.148;19.760;2023-02-28T10:00:16;16.40;33.20
21355;DHT22;10835;50.148;19.760;2023-02-28T10:03:06;16.40;33.50
21355;DHT22;10835;50.148;19.760;2023-02-28T10:05:41;16.40;35.10
21355;DHT22;10835;50.148;19.760;2023-02-28T10:08:15;16.60;33.70
21355;DHT22;10835;50.148;19.760;2023-02-28T10:10:48;16.70;33.30
21355;DHT22;10835;50.148;19.760;2023-02-28T10:13:22;17.00;33.20
21355;DHT22;10835;50.148;19.760;2023-02-28T10:15:55;17.50;32.20
21355;DHT22;10835;50.148;19.760;2023-02-28T10:18:30;17.80;32.10
21355;DHT22;10835;50.148;19.760;2023-02-28T10:21:01;17.30;32.00
21355;DHT22;10835;50.148;19.760;2023-02-28T10:23:35;17.10;33.50
21355;DHT22;10835;50.148;19.760;2023-02-28T10:26:12;17.30;32.40
21355;DHT22;10835;50.148;19.760;2023-02-28T10:28:43;17.60;32.50
21355;DHT22;10835;50.148;19.760;2023-02-28T10:31:18;17.90;31.80
21355;DHT22;10835;50.148;19.760;2023-02-28T10:33:47;18.00;32.10
21355;DHT22;10835;50.148;19.760;2023-02-28T10:36:18;18.30;31.50
21355;DHT22;10835;50.148;19.760;2023-02-28T10:38:47;18.40;31.10
21355;DHT22;10835;50.148;19.760;2023-02-28T10:41:28;18.60;31.40
21355;DHT22;10835;50.148;19.760;2023-02-28T10:44:13;18.50;30.80
21355;DHT22;10835;50.148;19.760;2023-02-28T10:46:43;18.40;31.40
21355;DHT22;10835;50.148;19.760;2023-02-28T10:49:17;18.50;31.70
21355;DHT22;10835;50.148;19.760;2023-02-28T10:51:51;18.20;31.50
21355;DHT22;10835;50.148;19.760;2023-02-28T10:54:23;18.40;31.20
21355;DHT22;10835;50.148;19.760;2023-02-28T10:57:16;18.00;31.30
21355;DHT22;10835;50.148;19.760;2023-02-28T10:59:45;18.20;30.90
21355;DHT22;10835;50.148;19.760;2023-02-28T11:02:31;17.80;31.60
21355;DHT22;10835;50.148;19.760;2023-02-28T11:05:27;17.90;31.60
21355;DHT22;10835;50.148;19.760;2023-02-28T11:07:59;17.80;31.20
21355;DHT22;10835;50.148;19.760;2023-02-28T11:10:31;17.90;31.10
21355;DHT22;10835;50.148;19.760;2023-02-28T11:13:03;17.70;31.50
21355;DHT22;10835;50.148;19.760;2023-02-28T11:15:33;17.50;31.80
21355;DHT22;10835;50.148;19.760;2023-02-28T11:18:06;17.50;31.80
21355;DHT22;10835;50.148;19.760;2023-02-28T11:20:48;17.80;31.80
21355;DHT22;10835;50.148;19.760;2023-02-28T11:23:18;18.10;31.30
21355;DHT22;10835;50.148;19.760;2023-02-28T11:25:50;17.90;31.50
21355;DHT22;10835;50.148;19.760;2023-02-28T11:28:29;17.70;31.00
21355;DHT22;10835;50.148;19.760;2023-02-28T11:31:06;17.90;31.40
21355;DHT22;10835;50.148;19.760;2023-02-28T11:33:41;18.20;31.40
21355;DHT22;10835;50.148;19.760;2023-02-28T11:36:13;17.90;31.00
21355;DHT22;10835;50.148;19.760;2023-02-28T11:38:43;17.80;30.60
21355;DHT22;10835;50.148;19.760;2023-02-28T11:41:51;17.40;31.10
21355;DHT22;10835;50.148;19.760;2023-02-28T11:44:38;17.00;32.30
21355;DHT22;10835;50.148;19.760;2023-02-28T11:47:16;17.50;32.20
21355;DHT22;10835;50.148;19.760;2023-02-28T11:49:51;18.00;31.70
21355;DHT22;10835;50.148;19.760;2023-02-28T11:52:33;17.50;32.80
21355;DHT22;10835;50.148;19.760;2023-02-28T11:55:11;17.50;32.20
21355;DHT22;10835;50.148;19.760;2023-02-28T12:00:57;17.20;32.20
21355;DHT22;10835;50.148;19.760;2023-02-28T12:03:36;17.30;32.50
21355;DHT22;10835;50.148;19.760;2023-02-28T12:06:15;17.50;32.10
21355;DHT22;10835;50.148;19.760;2023-02-28T12:08:56;17.80;31.80
21355;DHT22;10835;50.148;19.760;2023-02-28T12:11:36;18.10;31.20
21355;DHT22;10835;50.148;19.760;2023-02-28T12:17:24;17.60;32.40
21355;DHT22;10835;50.148;19.760;2023-02-28T12:20:05;17.00;32.40
21355;DHT22;10835;50.148;19.760;2023-02-28T12:22:42;17.00;33.20
21355;DHT22;10835;50.148;19.760;2023-02-28T12:28:08;16.90;33.30
21355;DHT22;10835;50.148;19.760;2023-02-28T12:30:41;17.50;32.80
21355;DHT22;10835;50.148;19.760;2023-02-28T12:33:16;17.50;32.60
21355;DHT22;10835;50.148;19.760;2023-02-28T12:35:49;17.90;32.90
21355;DHT22;10835;50.148;19.760;2023-02-28T12:38:22;18.00;33.00
21355;DHT22;10835;50.148;19.760;2023-02-28T12:40:56;18.00;30.90
21355;DHT22;10835;50.148;19.760;2023-02-28T12:43:31;17.00;32.10
21355;DHT22;10835;50.148;19.760;2023-02-28T12:46:04;17.30;32.90
21355;DHT22;10835;50.148;19.760;2023-02-28T12:48:42;17.50;32.70
21355;DHT22;10835;50.148;19.760;2023-02-28T12:51:12;17.20;32.90
21355;DHT22;10835;50.148;19.760;2023-02-28T12:53:50;17.60;32.80
21355;DHT22;10835;50.148;19.760;2023-02-28T12:56:30;17.60;32.20
21355;DHT22;10835;50.148;19.760;2023-02-28T12:59:04;17.70;33.00
21355;DHT22;10835;50.148;19.760;2023-02-28T13:02:00;18.20;32.10
21355;DHT22;10835;50.148;19.760;2023-02-28T13:04:46;18.50;31.80
21355;DHT22;10835;50.148;19.760;2023-02-28T13:10:24;18.00;31.60
21355;DHT22;10835;50.148;19.760;2023-02-28T13:12:55;18.00;31.60
21355;DHT22;10835;50.148;19.760;2023-02-28T13:15:25;17.80;31.60
21355;DHT22;10835;50.148;19.760;2023-02-28T13:17:56;17.60;31.90
21355;DHT22;10835;50.148;19.760;2023-02-28T13:20:31;16.90;32.70
21355;DHT22;10835;50.148;19.760;2023-02-28T13:23:01;16.70;33.70
21355;DHT22;10835;50.148;19.760;2023-02-28T13:25:51;16.90;33.40
21355;DHT22;10835;50.148;19.760;2023-02-28T13:34:38;17.00;33.20
21355;DHT22;10835;50.148;19.760;2023-02-28T13:37:35;17.60;33.90
21355;DHT22;10835;50.148;19.760;2023-02-28T13:40:30;17.40;33.20
21355;DHT22;10835;50.148;19.760;2023-02-28T13:43:08;17.60;32.70
21355;DHT22;10835;50.148;19.760;2023-02-28T13:45:36;17.30;32.50
21355;DHT22;10835;50.148;19.760;2023-02-28T13:48:18;17.40;33.00
21355;DHT22;10835;50.148;19.760;2023-02-28T13:50:47;17.70;32.50
21355;DHT22;10835;50.148;19.760;2023-02-28T13:53:53;17.30;32.80
21355;DHT22;10835;50.148;19.760;2023-02-28T13:56:33;17.30;33.40
21355;DHT22;10835;50.148;19.760;2023-02-28T13:59:12;17.60;33.10
21355;DHT22;10835;50.148;19.760;2023-02-28T14:01:57;17.20;33.40
21355;DHT22;10835;50.148;19.760;2023-02-28T14:04:43;17.40;33.30
21355;DHT22;10835;50.148;19.760;2023-02-28T14:07:19;17.30;33.10
21355;DHT22;10835;50.148;19.760;2023-02-28T14:09:56;17.20;33.50
21355;DHT22;10835;50.148;19.760;2023-02-28T14:12:54;16.80;33.80
21355;DHT22;10835;50.148;19.760;2023-02-28T14:15:54;17.10;33.80
21355;DHT22;10835;50.148;19.760;2023-02-28T14:18:27;17.60;33.20
21355;DHT22;10835;50.148;19.760;2023-02-28T14:20:59;17.60;33.20
21355;DHT22;10835;50.148;19.760;2023-02-28T14:26:37;17.50;33.40
21355;DHT22;10835;50.148;19.760;2023-02-28T14:29:36;17.70;32.70
21355;DHT22;10835;50.148;19.760;2023-02-28T14:32:11;17.90;32.90
21355;DHT22;10835;50.148;19.760;2023-02-28T14:34:45;17.80;32.70
21355;DHT22;10835;50.148;19.760;2023-02-28T14:37:20;18.20;33.30
21355;DHT22;10835;50.148;19.760;2023-02-28T14:39:51;18.30;32.10
21355;DHT22;10835;50.148;19.760;2023-02-28T14:42:30;17.80;32.20
21355;DHT22;10835;50.148;19.760;2023-02-28T14:45:00;18.10;32.40
21355;DHT22;10835;50.148;19.760;2023-02-28T14:47:31;18.10;32.40
21355;DHT22;10835;50.148;19.760;2023-02-28T14:50:01;18.00;32.60
21355;DHT22;10835;50.148;19.760;2023-02-28T14:52:32;17.60;32.20
21355;DHT22;10835;50.148;19.760;2023-02-28T14:55:06;17.50;32.90
21355;DHT22;10835;50.148;19.760;2023-02-28T14:57:42;17.50;32.90
21355;DHT22;10835;50.148;19.760;2023-02-28T15:00:22;17.70;32.40
21355;DHT22;10835;50.148;19.760;2023-02-28T15:02:51;17.50;32.10
21355;DHT22;10835;50.148;19.760;2023-02-28T15:05:27;17.70;32.10
21355;DHT22;10835;50.148;19.760;2023-02-28T15:08:11;17.50;32.40
21355;DHT22;10835;50.148;19.760;2023-02-28T15:10:42;17.70;33.00
21355;DHT22;10835;50.148;19.760;2023-02-28T15:13:14;18.10;32.40
21355;DHT22;10835;50.148;19.760;2023-02-28T15:15:45;17.70;32.50
21355;DHT22;10835;50.148;19.760;2023-02-28T15:18:36;18.00;32.80
21355;DHT22;10835;50.148;19.760;2023-02-28T15:21:16;17.80;32.50
21355;DHT22;10835;50.148;19.760;2023-02-28T15:23:48;17.80;32.80
21355;DHT22;10835;50.148;19.760;2023-02-28T15:26:19;17.80;32.50
21355;DHT22;10835;50.148;19.760;2023-02-28T15:28:51;18.10;32.60
21355;DHT22;10835;50.148;19.760;2023-02-28T15:31:26;18.30;31.80
21355;DHT22;10835;50.148;19.760;2023-02-28T15:34:04;17.90;32.10
21355;DHT22;10835;50.148;19.760;2023-02-28T15:36:34;18.00;32.10
21355;DHT22;10835;50.148;19.760;2023-02-28T15:39:20;18.00;32.20
21355;DHT22;10835;50.148;19.760;2023-02-28T15:41:49;18.10;32.40
21355;DHT22;10835;50.148;19.760;2023-02-28T15:44:25;18.30;32.40
21355;DHT22;10835;50.148;19.760;2023-02-28T15:47:00;18.00;32.00
21355;DHT22;10835;50.148;19.760;2023-02-28T15:49:36;17.90;32.20
21355;DHT22;10835;50.148;19.760;2023-02-28T15:52:14;18.10;32.20
21355;DHT22;10835;50.148;19.760;2023-02-28T15:54:44;18.20;32.50
21355;DHT22;10835;50.148;19.760;2023-02-28T15:57:17;18.30;32.60
21355;DHT22;10835;50.148;19.760;2023-02-28T15:59:52;17.80;32.40
21355;DHT22;10835;50.148;19.760;2023-02-28T16:02:25;17.80;33.00
21355;DHT22;10835;50.148;19.760;2023-02-28T16:05:19;17.80;32.80
21355;DHT22;10835;50.148;19.760;2023-02-28T16:07:54;17.90;32.90
21355;DHT22;10835;50.148;19.760;2023-02-28T16:10:24;17.70;32.60
21355;DHT22;10835;50.148;19.760;2023-02-28T16:12:54;17.80;33.20
21355;DHT22;10835;50.148;19.760;2023-02-28T16:15:27;18.00;33.20
21355;DHT22;10835;50.148;19.760;2023-02-28T16:17:57;18.10;33.10
21355;DHT22;10835;50.148;19.760;2023-02-28T16:20:28;18.20;32.80
21355;DHT22;10835;50.148;19.760;2023-02-28T16:22:56;18.30;32.80